createdAt,value
2023-05-24T00:00:47.736Z,17.10
2023-05-24T00:03:34.959Z,18.10
2023-05-24T00:06:07.633Z,16.60
2023-05-24T00:08:39.383Z,15.90
2023-05-24T00:11:11.443Z,15.70
2023-05-24T00:13:43.184Z,16.00
2023-05-24T00:16:15.080Z,15.40
2023-05-24T00:18:47.132Z,15.00
2023-05-24T00:21:19.041Z,14.40
2023-05-24T00:23:51.798Z,14.50
2023-05-24T00:26:23.635Z,14.90
2023-05-24T00:28:58.253Z,13.90
2023-05-24T00:31:29.948Z,13.00
2023-05-24T00:34:01.744Z,12.30
2023-05-24T00:36:33.970Z,13.30
2023-05-24T00:39:05.853Z,13.00
2023-05-24T00:41:38.694Z,12.50
2023-05-24T00:44:11.302Z,12.70
2023-05-24T00:46:43.632Z,12.40
2023-05-24T00:49:15.587Z,12.80
2023-05-24T00:51:47.411Z,13.30
2023-05-24T00:54:19.177Z,13.40
2023-05-24T00:56:51.859Z,14.80
2023-05-24T00:59:24.075Z,14.10
2023-05-24T01:01:56.490Z,14.90
2023-05-24T01:04:28.732Z,15.10
2023-05-24T01:07:13.070Z,14.70
2023-05-24T01:09:55.149Z,14.40
2023-05-24T01:12:35.963Z,14.10
2023-05-24T01:15:18.610Z,14.30
2023-05-24T01:18:02.555Z,14.20
2023-05-24T01:20:38.360Z,13.60
2023-05-24T01:23:40.219Z,14.40
2023-05-24T01:26:39.421Z,15.90
2023-05-24T01:29:12.101Z,13.30
2023-05-24T01:34:15.712Z,13.20
2023-05-24T01:36:47.599Z,13.40
2023-05-24T01:39:19.515Z,14.00
2023-05-24T01:42:01.027Z,12.70
2023-05-24T01:44:38.971Z,12.50
2023-05-24T01:47:22.063Z,13.40
2023-05-24T01:50:00.494Z,12.80
2023-05-24T01:52:36.158Z,12.20
2023-05-24T01:55:10.692Z,12.40
2023-05-24T01:57:45.058Z,11.90
2023-05-24T02:00:20.708Z,11.10
2023-05-24T02:02:52.948Z,12.70
2023-05-24T02:05:25.224Z,11.20
2023-05-24T02:07:57.013Z,10.70
2023-05-24T02:10:29.035Z,11.20
2023-05-24T02:13:01.056Z,10.80
2023-05-24T02:15:32.983Z,9.90
2023-05-24T02:18:07.993Z,10.40
2023-05-24T02:20:40.673Z,10.50
2023-05-24T02:23:12.689Z,11.20
2023-05-24T02:25:44.790Z,10.40
2023-05-24T02:28:16.594Z,11.10
2023-05-24T02:30:49.037Z,10.50
2023-05-24T02:33:21.083Z,10.90
2023-05-24T02:35:52.932Z,10.90
2023-05-24T02:38:24.717Z,10.50
2023-05-24T02:40:56.549Z,11.10
2023-05-24T02:43:28.248Z,8.20
2023-05-24T02:46:00.406Z,10.20
2023-05-24T02:48:32.301Z,9.90
2023-05-24T02:51:04.460Z,10.10
2023-05-24T02:53:36.317Z,9.60
2023-05-24T02:56:08.654Z,9.00
2023-05-24T02:58:41.493Z,8.60
2023-05-24T03:01:13.564Z,8.00
2023-05-24T03:03:45.817Z,8.20
2023-05-24T03:06:18.102Z,7.80
2023-05-24T03:08:51.066Z,6.40
2023-05-24T03:11:23.881Z,7.60
2023-05-24T03:13:55.615Z,6.00
2023-05-24T03:16:28.246Z,6.20
2023-05-24T03:19:00.374Z,5.60
2023-05-24T03:21:33.003Z,6.10
2023-05-24T03:24:04.920Z,6.00
2023-05-24T03:26:37.352Z,5.30
2023-05-24T03:29:10.043Z,6.10
2023-05-24T03:31:44.409Z,6.10
2023-05-24T03:34:16.363Z,7.80
2023-05-24T03:36:48.946Z,8.00
2023-05-24T03:39:20.682Z,7.20
2023-05-24T03:41:59.499Z,7.80
2023-05-24T03:44:31.275Z,9.00
2023-05-24T03:47:04.828Z,7.20
2023-05-24T03:49:37.046Z,8.80
2023-05-24T03:52:09.388Z,8.70
2023-05-24T03:54:41.158Z,10.00
2023-05-24T03:57:12.899Z,8.90
2023-05-24T03:59:44.655Z,10.30
2023-05-24T04:02:16.600Z,11.30
2023-05-24T04:04:49.221Z,11.10
2023-05-24T04:07:24.409Z,8.80
2023-05-24T04:09:56.114Z,10.20
2023-05-24T04:12:27.854Z,6.00
2023-05-24T04:15:00.798Z,9.40
2023-05-24T04:17:35.315Z,8.70
2023-05-24T04:20:08.815Z,8.20
2023-05-24T04:22:40.889Z,8.70
2023-05-24T04:25:12.917Z,9.70
2023-05-24T04:27:48.231Z,8.20
2023-05-24T04:30:21.401Z,8.10
2023-05-24T04:32:53.862Z,8.30
2023-05-24T04:35:26.506Z,8.50
2023-05-24T04:37:59.776Z,8.00
2023-05-24T04:40:32.164Z,7.20
2023-05-24T04:43:03.913Z,6.70
2023-05-24T04:45:35.605Z,7.10
2023-05-24T04:48:08.167Z,7.40
2023-05-24T04:50:40.283Z,6.60
2023-05-24T04:53:12.214Z,6.30
2023-05-24T04:55:44.844Z,7.20
2023-05-24T04:58:17.122Z,6.00
2023-05-24T05:00:49.078Z,6.50
2023-05-24T05:03:21.000Z,6.60
2023-05-24T05:05:53.557Z,6.80
2023-05-24T05:08:25.306Z,6.70
2023-05-24T05:10:57.652Z,5.50
2023-05-24T05:13:29.387Z,5.80
2023-05-24T05:16:01.925Z,6.40
2023-05-24T05:18:33.899Z,6.50
2023-05-24T05:21:06.442Z,4.50
2023-05-24T05:23:39.748Z,6.50
2023-05-24T05:26:11.677Z,5.80
2023-05-24T05:28:43.796Z,5.80
2023-05-24T05:31:16.071Z,6.10
2023-05-24T05:33:48.028Z,4.70
2023-05-24T05:36:20.508Z,5.70
2023-05-24T05:38:52.371Z,5.40
2023-05-24T05:41:24.275Z,5.00
2023-05-24T05:43:56.057Z,2.90
2023-05-24T05:46:27.829Z,3.10
2023-05-24T05:48:59.807Z,3.90
2023-05-24T05:51:31.925Z,3.00
2023-05-24T05:54:03.728Z,1.70
2023-05-24T05:56:41.114Z,3.00
2023-05-24T05:59:13.078Z,2.60
2023-05-24T06:01:47.066Z,3.60
2023-05-24T06:04:19.372Z,3.40
2023-05-24T06:06:52.128Z,3.30
2023-05-24T06:09:24.154Z,2.30
2023-05-24T06:11:55.926Z,2.50
2023-05-24T06:14:27.823Z,1.20
2023-05-24T06:17:00.392Z,2.20
2023-05-24T06:22:03.320Z,1.60
2023-05-24T06:24:35.312Z,1.50
2023-05-24T06:27:07.995Z,1.90
2023-05-24T06:32:11.204Z,1.90
2023-05-24T06:37:15.706Z,2.40
2023-05-24T06:39:47.588Z,1.60
2023-05-24T06:42:19.382Z,2.70
2023-05-24T06:44:51.392Z,1.40
2023-05-24T06:47:23.829Z,1.70
2023-05-24T06:52:26.181Z,1.90
2023-05-24T06:54:57.998Z,2.20
2023-05-24T06:57:30.182Z,1.40
2023-05-24T07:00:02.034Z,2.10
2023-05-24T07:02:34.437Z,2.50
2023-05-24T07:05:10.800Z,2.70
2023-05-24T07:07:43.858Z,2.60
2023-05-24T07:10:15.862Z,2.40
2023-05-24T07:12:47.865Z,2.60
2023-05-24T07:15:19.619Z,3.10
2023-05-24T07:17:51.572Z,2.60
2023-05-24T07:20:23.461Z,2.40
2023-05-24T07:22:55.299Z,3.20
2023-05-24T07:25:27.482Z,1.90
2023-05-24T07:27:59.245Z,2.40
2023-05-24T07:30:32.733Z,2.80
2023-05-24T07:33:05.024Z,3.90
2023-05-24T07:35:37.036Z,3.70
2023-05-24T07:38:09.200Z,3.90
2023-05-24T07:40:41.391Z,3.20
2023-05-24T07:43:13.487Z,4.60
2023-05-24T07:45:45.427Z,4.80
2023-05-24T07:48:17.353Z,3.60
2023-05-24T07:50:50.069Z,5.00
2023-05-24T07:53:22.942Z,4.90
2023-05-24T07:55:55.136Z,5.30
2023-05-24T07:58:27.575Z,4.60
2023-05-24T08:00:59.513Z,5.60
2023-05-24T08:03:31.440Z,6.40
2023-05-24T08:06:04.047Z,5.60
2023-05-24T08:08:36.312Z,5.60
2023-05-24T08:11:09.030Z,5.30
2023-05-24T08:16:11.159Z,5.50
2023-05-24T08:18:43.089Z,7.60
2023-05-24T08:21:14.906Z,5.80
2023-05-24T08:23:46.667Z,5.70
2023-05-24T08:26:20.956Z,5.90
2023-05-24T08:28:52.908Z,6.10
2023-05-24T08:31:24.753Z,5.70
2023-05-24T08:33:57.754Z,6.60
2023-05-24T08:36:29.564Z,5.90
2023-05-24T08:39:01.336Z,5.70
2023-05-24T08:41:37.351Z,6.10
2023-05-24T08:44:09.747Z,5.90
2023-05-24T08:46:41.915Z,6.20
2023-05-24T08:49:15.118Z,6.00
2023-05-24T08:51:47.898Z,6.40
2023-05-24T08:54:21.260Z,7.20
2023-05-24T08:56:53.996Z,7.10
2023-05-24T09:01:58.619Z,6.90
2023-05-24T09:04:31.624Z,7.90
2023-05-24T09:07:04.078Z,7.40
2023-05-24T09:09:44.542Z,7.50
2023-05-24T09:14:59.933Z,8.00
2023-05-24T09:20:09.918Z,8.00
2023-05-24T09:22:44.092Z,8.20
2023-05-24T09:25:16.798Z,9.40
2023-05-24T09:27:53.136Z,8.10
2023-05-24T09:30:25.143Z,9.20
2023-05-24T09:33:02.250Z,8.40
2023-05-24T09:35:34.430Z,8.70
2023-05-24T09:38:06.294Z,9.50
2023-05-24T09:40:38.265Z,9.70
2023-05-24T09:43:10.962Z,9.40
2023-05-24T09:48:16.688Z,8.90
2023-05-24T09:51:01.191Z,8.50
2023-05-24T09:53:34.956Z,9.20
2023-05-24T09:56:09.318Z,9.00
2023-05-24T09:58:42.451Z,9.00
2023-05-24T10:01:16.487Z,9.10
2023-05-24T10:03:57.596Z,9.50
2023-05-24T10:06:32.722Z,9.30
2023-05-24T10:09:07.882Z,8.90
2023-05-24T10:11:40.046Z,10.10
2023-05-24T10:14:12.644Z,10.70
2023-05-24T10:16:45.751Z,10.90
2023-05-24T10:19:18.519Z,10.10
2023-05-24T10:21:53.661Z,9.80
2023-05-24T10:24:27.542Z,10.30
2023-05-24T10:27:02.717Z,10.50
2023-05-24T10:29:45.955Z,10.10
2023-05-24T10:32:20.568Z,9.30
2023-05-24T10:34:54.629Z,9.60
2023-05-24T10:37:27.518Z,9.70
2023-05-24T10:40:01.033Z,9.50
2023-05-24T10:42:36.274Z,10.60
2023-05-24T10:45:33.489Z,10.50
2023-05-24T10:48:31.192Z,10.60
2023-05-24T10:51:25.188Z,10.00
2023-05-24T10:53:59.717Z,10.20
2023-05-24T10:56:31.737Z,9.10
2023-05-24T10:59:06.257Z,9.60
2023-05-24T11:01:38.839Z,9.60
2023-05-24T11:04:13.222Z,10.40
2023-05-24T11:06:58.007Z,9.30
2023-05-24T11:09:30.663Z,9.00
2023-05-24T11:12:07.385Z,9.90
2023-05-24T11:14:41.068Z,9.70
2023-05-24T11:17:13.275Z,9.70
2023-05-24T11:19:51.716Z,10.90
2023-05-24T11:22:26.761Z,9.30
2023-05-24T11:25:04.246Z,10.00
2023-05-24T11:27:36.642Z,8.80
2023-05-24T11:30:12.420Z,10.10
2023-05-24T11:32:48.448Z,9.40
2023-05-24T11:35:23.215Z,10.00
2023-05-24T11:37:56.126Z,9.50
2023-05-24T11:40:28.271Z,10.80
2023-05-24T11:43:01.210Z,10.20
2023-05-24T11:45:33.593Z,9.60
2023-05-24T11:48:08.623Z,9.90
2023-05-24T11:50:49.892Z,11.60
2023-05-24T11:53:23.205Z,11.00
2023-05-24T11:58:39.763Z,9.00
2023-05-24T12:01:26.008Z,8.30
2023-05-24T12:03:58.180Z,9.00
2023-05-24T12:06:39.440Z,8.80
2023-05-24T12:09:13.798Z,8.80
2023-05-24T12:11:48.140Z,8.20
2023-05-24T12:14:24.022Z,8.20
2023-05-24T12:16:58.036Z,8.90
2023-05-24T12:19:36.471Z,8.10
2023-05-24T12:22:09.974Z,7.80
2023-05-24T12:24:42.391Z,10.10
2023-05-24T12:27:14.569Z,9.40
2023-05-24T12:29:46.480Z,9.30
2023-05-24T12:32:20.089Z,9.50
2023-05-24T12:34:52.468Z,9.20
2023-05-24T12:37:24.635Z,8.50
2023-05-24T12:39:56.762Z,10.80
2023-05-24T12:42:28.809Z,10.40
2023-05-24T12:45:01.192Z,9.10
2023-05-24T12:47:33.231Z,9.20
2023-05-24T12:50:05.507Z,7.20
2023-05-24T12:52:37.328Z,9.40
2023-05-24T12:55:10.686Z,9.60
2023-05-24T12:57:43.568Z,9.40
2023-05-24T13:00:16.896Z,9.70
2023-05-24T13:02:50.008Z,9.50
2023-05-24T13:05:22.628Z,9.60
2023-05-24T13:07:56.345Z,9.20
2023-05-24T13:10:28.603Z,9.20
2023-05-24T13:13:00.553Z,8.90
2023-05-24T13:15:32.609Z,8.40
2023-05-24T13:18:04.978Z,7.50
2023-05-24T13:20:37.339Z,7.90
2023-05-24T13:23:09.416Z,8.70
2023-05-24T13:25:41.213Z,8.80
2023-05-24T13:28:13.566Z,10.20
2023-05-24T13:30:45.640Z,8.40
2023-05-24T13:33:18.239Z,10.10
2023-05-24T13:35:50.284Z,8.50
2023-05-24T13:38:22.370Z,9.20
2023-05-24T13:40:56.355Z,8.90
2023-05-24T13:43:28.306Z,9.50
2023-05-24T13:46:00.236Z,8.50
2023-05-24T13:48:32.475Z,8.80
2023-05-24T13:51:04.440Z,5.30
2023-05-24T13:53:36.514Z,7.90
2023-05-24T13:56:08.926Z,8.30
2023-05-24T13:58:40.786Z,8.90
2023-05-24T14:01:14.217Z,8.90
2023-05-24T14:03:46.230Z,8.00
2023-05-24T14:06:19.991Z,8.20
2023-05-24T14:08:52.052Z,8.10
2023-05-24T14:11:24.616Z,6.00
2023-05-24T14:14:47.517Z,7.80
2023-05-24T14:16:51.931Z,8.50
2023-05-24T14:19:23.934Z,7.90
2023-05-24T14:21:56.214Z,9.10
2023-05-24T14:24:28.129Z,8.60
2023-05-24T14:26:59.961Z,7.90
2023-05-24T14:29:31.733Z,8.00
2023-05-24T14:32:03.831Z,7.80
2023-05-24T14:34:35.748Z,8.20
2023-05-24T14:37:08.160Z,8.70
2023-05-24T14:39:39.906Z,7.70
2023-05-24T14:42:11.822Z,7.20
2023-05-24T14:44:43.519Z,7.50
2023-05-24T14:47:15.435Z,7.70
2023-05-24T14:49:47.244Z,7.60
2023-05-24T14:52:19.214Z,7.50
2023-05-24T14:54:51.470Z,7.80
2023-05-24T14:57:23.986Z,8.70
2023-05-24T14:59:56.030Z,7.70
2023-05-24T15:02:28.195Z,8.10
2023-05-24T15:05:00.541Z,8.30
2023-05-24T15:07:32.854Z,7.80
2023-05-24T15:10:04.776Z,7.40
2023-05-24T15:12:36.871Z,8.10
2023-05-24T15:17:41.227Z,7.80
2023-05-24T15:20:13.840Z,7.20
2023-05-24T15:22:45.978Z,7.20
2023-05-24T15:25:17.945Z,6.90
2023-05-24T15:27:51.444Z,8.00
2023-05-24T15:30:24.061Z,8.00
2023-05-24T15:32:57.163Z,8.00
2023-05-24T15:35:29.295Z,8.20
2023-05-24T15:38:01.251Z,5.30
2023-05-24T15:40:33.349Z,7.50
2023-05-24T15:43:05.816Z,7.50
2023-05-24T15:45:37.797Z,7.50
2023-05-24T15:48:10.014Z,8.20
2023-05-24T15:53:17.680Z,8.00
2023-05-24T15:55:51.159Z,7.30
2023-05-24T15:58:23.265Z,6.80
2023-05-24T16:00:55.196Z,7.70
2023-05-24T16:03:27.624Z,7.40
2023-05-24T16:05:59.653Z,7.30
2023-05-24T16:08:32.075Z,7.70
2023-05-24T16:11:08.151Z,8.30
2023-05-24T16:13:40.351Z,7.10
2023-05-24T16:16:13.181Z,7.80
2023-05-24T16:18:45.041Z,8.90
2023-05-24T16:21:16.982Z,8.40
2023-05-24T16:23:49.326Z,7.50
2023-05-24T16:28:52.444Z,8.10
2023-05-24T16:31:24.934Z,7.40
2023-05-24T16:33:58.685Z,7.80
2023-05-24T16:36:31.386Z,8.50
2023-05-24T16:39:03.929Z,8.50
2023-05-24T16:41:37.738Z,8.30
2023-05-24T16:44:10.459Z,8.60
2023-05-24T16:46:42.900Z,7.50
2023-05-24T16:49:15.068Z,8.10
2023-05-24T16:51:47.164Z,8.30
2023-05-24T16:54:19.344Z,7.90
2023-05-24T16:56:53.831Z,7.40
2023-05-24T16:59:25.960Z,8.40
2023-05-24T17:01:58.769Z,7.60
2023-05-24T17:04:31.647Z,8.90
2023-05-24T17:07:03.628Z,7.50
2023-05-24T17:09:35.906Z,7.70
2023-05-24T17:12:08.968Z,7.10
2023-05-24T17:17:13.259Z,7.80
2023-05-24T17:19:45.630Z,7.40
2023-05-24T17:22:17.644Z,7.30
2023-05-24T17:24:49.808Z,6.80
2023-05-24T17:27:22.564Z,8.70
2023-05-24T17:29:58.651Z,8.10
2023-05-24T17:32:31.216Z,7.80
2023-05-24T17:35:03.636Z,7.90
2023-05-24T17:37:36.063Z,8.40
2023-05-24T17:40:10.388Z,7.50
2023-05-24T17:42:43.276Z,8.40
2023-05-24T17:45:15.519Z,8.00
2023-05-24T17:47:47.685Z,7.80
2023-05-24T17:50:20.604Z,8.80
2023-05-24T17:52:53.176Z,7.10
2023-05-24T17:55:25.218Z,8.50
2023-05-24T18:00:28.816Z,8.30
2023-05-24T18:03:01.131Z,8.30
2023-05-24T18:05:33.337Z,7.80
2023-05-24T18:08:05.279Z,9.10
2023-05-24T18:10:38.619Z,8.10
2023-05-24T18:13:10.663Z,8.00
2023-05-24T18:15:43.826Z,9.70
2023-05-24T18:18:16.583Z,8.50
2023-05-24T18:20:49.915Z,8.30
2023-05-24T18:23:22.792Z,8.60
2023-05-24T18:26:00.158Z,8.90
2023-05-24T18:28:36.748Z,8.30
2023-05-24T18:31:11.321Z,9.50
2023-05-24T18:33:44.700Z,9.70
2023-05-24T18:36:16.945Z,9.20
2023-05-24T18:38:49.256Z,9.30
2023-05-24T18:41:22.855Z,9.60
2023-05-24T18:43:54.727Z,9.20
2023-05-24T18:46:27.886Z,9.60
2023-05-24T18:49:01.736Z,9.10
2023-05-24T18:51:33.897Z,9.50
2023-05-24T18:54:06.892Z,10.00
2023-05-24T18:56:39.052Z,9.20
2023-05-24T18:59:12.437Z,9.90
2023-05-24T19:01:45.833Z,9.20
2023-05-24T19:04:18.226Z,8.80
2023-05-24T19:06:50.402Z,10.30
2023-05-24T19:09:22.785Z,7.60
2023-05-24T19:14:26.768Z,9.40
2023-05-24T19:17:02.453Z,8.60
2023-05-24T19:19:39.323Z,8.70
2023-05-24T19:22:11.566Z,9.50
2023-05-24T19:24:47.951Z,10.30
2023-05-24T19:27:21.939Z,9.90
2023-05-24T19:29:59.051Z,10.20
2023-05-24T19:32:31.352Z,9.80
2023-05-24T19:35:03.714Z,9.80
2023-05-24T19:37:35.620Z,10.20
2023-05-24T19:40:10.768Z,10.00
2023-05-24T19:42:42.845Z,10.30
2023-05-24T19:45:15.205Z,11.40
2023-05-24T19:47:47.941Z,10.00
2023-05-24T19:50:21.791Z,9.80
2023-05-24T19:52:53.551Z,10.10
2023-05-24T19:55:25.639Z,10.90
2023-05-24T19:57:58.162Z,11.30
2023-05-24T20:00:31.732Z,11.40
2023-05-24T20:03:04.200Z,10.60
2023-05-24T20:05:38.289Z,10.60
2023-05-24T20:08:10.611Z,10.60
2023-05-24T20:10:43.980Z,11.50
2023-05-24T20:13:17.358Z,10.70
2023-05-24T20:15:49.514Z,11.20
2023-05-24T20:18:23.160Z,11.20
2023-05-24T20:20:57.437Z,10.30
2023-05-24T20:23:30.814Z,11.00
2023-05-24T20:26:06.160Z,11.70
2023-05-24T20:28:38.305Z,11.10
2023-05-24T20:31:10.324Z,10.80
2023-05-24T20:33:42.507Z,11.10
2023-05-24T20:36:15.964Z,10.40
2023-05-24T20:38:48.920Z,12.30
2023-05-24T20:41:20.842Z,10.70
2023-05-24T20:43:52.733Z,10.70
2023-05-24T20:48:57.036Z,12.30
2023-05-24T20:51:28.931Z,10.80
2023-05-24T20:54:00.967Z,11.70
2023-05-24T20:56:32.785Z,9.90
2023-05-24T20:59:04.904Z,9.70
2023-05-24T21:01:37.346Z,9.30
2023-05-24T21:04:09.296Z,10.20
2023-05-24T21:06:41.540Z,9.70
2023-05-24T21:09:13.411Z,9.50
2023-05-24T21:11:45.606Z,9.70
2023-05-24T21:14:17.401Z,9.90
2023-05-24T21:16:49.281Z,10.30
2023-05-24T21:19:21.594Z,8.70
2023-05-24T21:21:53.332Z,8.90
2023-05-24T21:24:25.194Z,9.30
2023-05-24T21:26:57.468Z,9.00
2023-05-24T21:29:29.938Z,10.00
2023-05-24T21:32:02.549Z,10.60
2023-05-24T21:34:35.869Z,9.00
2023-05-24T21:37:08.406Z,8.60
2023-05-24T21:39:40.324Z,9.90
2023-05-24T21:42:12.912Z,8.50
2023-05-24T21:44:44.975Z,9.20
2023-05-24T21:47:17.166Z,9.60
2023-05-24T21:49:50.857Z,10.20
2023-05-24T21:52:24.369Z,9.20
2023-05-24T21:54:56.180Z,9.10
2023-05-24T21:57:28.030Z,6.80
2023-05-24T21:59:59.806Z,9.00
2023-05-24T22:02:32.287Z,9.70
2023-05-24T22:05:05.249Z,10.10
2023-05-24T22:07:38.008Z,9.60
2023-05-24T22:10:12.276Z,8.70
2023-05-24T22:12:44.103Z,9.40
2023-05-24T22:15:15.916Z,8.60
2023-05-24T22:17:48.168Z,8.90
2023-05-24T22:20:20.232Z,10.10
2023-05-24T22:22:53.712Z,8.60
2023-05-24T22:25:25.770Z,8.80
2023-05-24T22:27:57.723Z,8.90
2023-05-24T22:30:31.832Z,10.10
2023-05-24T22:33:03.850Z,9.00
2023-05-24T22:35:35.557Z,9.20
2023-05-24T22:38:07.275Z,10.00
2023-05-24T22:40:41.898Z,9.80
2023-05-24T22:43:14.355Z,10.10
2023-05-24T22:45:46.216Z,11.30
2023-05-24T22:48:19.403Z,10.20
2023-05-24T22:50:54.363Z,9.90
2023-05-24T22:53:26.579Z,9.30
2023-05-24T22:55:58.429Z,10.20
2023-05-24T22:58:30.304Z,11.00
2023-05-24T23:01:02.052Z,7.40
2023-05-24T23:03:33.880Z,10.60
2023-05-24T23:06:05.744Z,10.40
2023-05-24T23:08:37.502Z,10.80
2023-05-24T23:11:10.589Z,11.10
2023-05-24T23:13:42.723Z,10.80
2023-05-24T23:16:18.030Z,10.40
2023-05-24T23:18:49.868Z,10.70
2023-05-24T23:21:22.398Z,11.30
2023-05-24T23:23:56.988Z,11.30
2023-05-24T23:26:29.033Z,11.60
2023-05-24T23:29:00.795Z,11.70
2023-05-24T23:31:32.583Z,11.40
2023-05-24T23:34:05.140Z,11.00
2023-05-24T23:36:36.996Z,11.70
2023-05-24T23:39:10.925Z,11.30
2023-05-24T23:41:42.637Z,11.50
2023-05-24T23:44:14.731Z,11.10
2023-05-24T23:46:47.999Z,11.50
2023-05-24T23:49:20.080Z,11.20
2023-05-24T23:51:51.773Z,12.20
2023-05-24T23:54:23.474Z,12.00
2023-05-24T23:56:55.189Z,12.90
2023-05-24T23:59:26.961Z,11.20
